Terminal Aerodrome Forecast
Issued by NWS Lake Charles, LA

Home | Current Version | Previous Version | Text Only | Print | Product List | Glossary On
Versions: 1 2 3 4 5 6 7 8 9 10 11 12 13 14 15 16 17 18 19 20 21 22 23
763
FTUS44 KLCH 201731
TAFLFT
TAF
KLFT 201731Z 2018/2118 16012G19KT P6SM VCSH BKN025 BKN035 OVC050
     FM210000 16008KT 5SM SHRA VCTS OVC015CB
     FM210400 VRB05KT 4SM SHRA OVC015
     FM211200 VRB03KT 4SM BR VCSH OVC015
      TEMPO 2112/2115 2SM SHRA OVC007
     FM211500 VRB03KT 3SM BR OVC007=

USA.gov is the U.S. government's official web portal to all federal, state and local government web resources and services.